Time;durP1;ratioP1;P1;durP2;ratioP2;P2;SDS_P1;SDS_P2;PMS_P1;PMS_P2;Temp;Humidity;BMP_temperature;BMP_pressure;BME280_temperature;BME280_humidity;BME280_pressure;Samples;Min_cycle;Max_cycle;Signal;HPM_P1;HPM_P2
2021/07/03 00:01:20;;;;;;;;;7.33;6.33;;;;;21.56;64.54;101091.97;5017344;28;45387;-62
2021/07/03 00:03:45;;;;;;;;;11.33;11.00;;;;;21.56;64.30;101097.31;5032640;28;45556;-61
2021/07/03 00:06:11;;;;;;;;;12.33;10.67;;;;;21.56;64.99;101095.50;5028025;28;45449;-62
2021/07/03 00:08:37;;;;;;;;;10.00;10.00;;;;;21.59;64.51;101097.78;5035097;28;46341;-62
2021/07/03 00:11:05;;;;;;;;;13.33;10.00;;;;;21.59;64.91;101095.13;5024840;28;45454;-63
2021/07/03 00:13:30;;;;;;;;;14.00;13.00;;;;;21.64;64.56;101099.09;5014827;28;45462;-63
2021/07/03 00:15:58;;;;;;;;;15.00;11.00;;;;;21.62;64.49;101112.66;5031205;28;45363;-64
2021/07/03 00:18:24;;;;;;;;;14.33;12.00;;;;;21.66;64.03;101105.13;5020596;28;46543;-62
2021/07/03 00:20:50;;;;;;;;;13.00;11.67;;;;;21.68;64.06;101105.75;5017391;28;45660;-63
2021/07/03 00:23:16;;;;;;;;;8.00;7.67;;;;;21.68;64.72;101111.09;5015043;28;45352;-62
2021/07/03 00:25:41;;;;;;;;;12.67;10.00;;;;;21.70;63.63;101109.09;5031046;28;46200;-66
2021/07/03 00:28:08;;;;;;;;;20.33;15.67;;;;;21.65;64.20;101101.59;5034441;28;45529;-65
2021/07/03 00:30:34;;;;;;;;;13.67;12.33;;;;;21.57;64.43;101101.66;5034787;28;45544;-67
2021/07/03 00:32:59;;;;;;;;;17.33;15.33;;;;;21.54;64.23;101110.84;5032877;28;45630;-65
2021/07/03 00:35:25;;;;;;;;;7.33;7.00;;;;;21.52;64.86;101102.19;5023280;28;45507;-65
2021/07/03 00:37:50;;;;;;;;;11.00;10.67;;;;;21.48;64.29;101105.38;5022346;28;45580;-65
2021/07/03 00:40:16;;;;;;;;;13.33;11.00;;;;;21.43;64.14;101103.22;5025193;28;45323;-65
2021/07/03 00:42:42;;;;;;;;;30.33;26.00;;;;;21.38;65.18;101105.56;5028903;28;45525;-65
2021/07/03 00:45:08;;;;;;;;;15.00;15.00;;;;;21.31;65.74;101101.97;5014150;28;45612;-66
2021/07/03 00:47:35;;;;;;;;;13.67;11.67;;;;;21.25;65.93;101101.66;5014625;28;45653;-64
2021/07/03 00:50:01;;;;;;;;;15.67;13.67;;;;;21.18;65.96;101095.34;5014442;28;45639;-65
2021/07/03 00:52:27;;;;;;;;;13.33;10.67;;;;;21.12;66.37;101090.72;5014080;28;45498;-63
2021/07/03 00:54:52;;;;;;;;;12.00;11.33;;;;;21.06;65.84;101088.72;5013923;28;45554;-63
2021/07/03 00:57:18;;;;;;;;;12.00;12.00;;;;;21.03;66.06;101091.72;5014088;28;45969;-62
2021/07/03 00:59:46;;;;;;;;;13.00;13.00;;;;;20.96;65.82;101080.09;5014211;28;45436;-62
2021/07/03 01:02:17;;;;;;;;;13.67;11.67;;;;;20.94;66.47;101089.13;5014360;28;45404;-63
2021/07/03 01:04:44;;;;;;;;;12.00;11.00;;;;;20.90;66.57;101081.59;5013977;28;45410;-62
2021/07/03 01:07:11;;;;;;;;;16.67;13.00;;;;;20.84;66.52;101083.16;5020782;28;45686;-66
2021/07/03 01:09:36;;;;;;;;;13.67;10.67;;;;;20.79;66.67;101080.16;4998827;28;45431;-62
2021/07/03 01:12:03;;;;;;;;;13.67;13.00;;;;;20.74;67.50;101085.19;5014376;28;45327;-63
2021/07/03 01:14:29;;;;;;;;;15.00;12.67;;;;;20.70;67.20;101082.03;5014601;28;45733;-62
2021/07/03 01:16:55;;;;;;;;;17.33;15.00;;;;;20.65;67.10;101089.69;5019503;28;45505;-62
2021/07/03 01:19:20;;;;;;;;;11.33;10.00;;;;;20.62;67.01;101087.38;5032909;28;45785;-62
2021/07/03 01:21:56;;;;;;;;;16.67;16.67;;;;;20.58;67.77;101081.53;5014327;28;45597;-62
2021/07/03 01:24:23;;;;;;;;;11.67;11.33;;;;;20.55;67.25;101079.22;5014030;28;45461;-62
2021/07/03 01:26:58;;;;;;;;;11.67;10.00;;;;;20.53;67.36;101075.88;5027283;28;45907;-64
2021/07/03 01:29:25;;;;;;;;;13.00;11.00;;;;;20.51;67.50;101074.38;5003040;28;45487;-63
2021/07/03 01:31:54;;;;;;;;;16.33;13.00;;;;;20.48;67.93;101064.88;5021608;28;45450;-63
2021/07/03 01:34:23;;;;;;;;;11.33;11.33;;;;;20.42;68.59;101061.06;5026996;28;45490;-63
2021/07/03 01:36:48;;;;;;;;;13.00;9.67;;;;;20.38;68.04;101058.91;5028766;28;46087;-64
2021/07/03 01:39:14;;;;;;;;;16.00;13.00;;;;;20.33;68.32;101061.25;5016768;28;45485;-62
2021/07/03 01:41:40;;;;;;;;;12.67;11.67;;;;;20.29;68.75;101060.78;5014140;28;45453;-63
2021/07/03 01:44:05;;;;;;;;;16.67;13.67;;;;;20.24;68.53;101061.28;5013737;28;45573;-62
2021/07/03 01:46:32;;;;;;;;;12.67;10.00;;;;;20.23;68.59;101059.59;5013062;28;47126;-63
2021/07/03 01:49:05;;;;;;;;;13.33;12.00;;;;;20.20;68.75;101053.75;5037648;28;45517;-63
2021/07/03 01:51:31;;;;;;;;;4.33;4.00;;;;;20.17;69.20;101044.28;5020397;28;45419;-63
2021/07/03 01:53:56;;;;;;;;;14.00;13.00;;;;;20.17;68.67;101048.78;5019080;28;45566;-63
2021/07/03 01:56:22;;;;;;;;;15.00;12.00;;;;;20.15;68.90;101040.09;5018527;28;47002;-63
2021/07/03 01:58:47;;;;;;;;;13.67;11.33;;;;;20.14;68.94;101043.81;5020565;28;45399;-62
2021/07/03 02:01:13;;;;;;;;;14.00;12.00;;;;;20.12;69.00;101046.59;5020771;28;45351;-63
2021/07/03 02:03:38;;;;;;;;;14.00;11.00;;;;;20.11;69.33;101051.13;5020673;28;45176;-62
2021/07/03 02:06:04;;;;;;;;;11.33;10.33;;;;;20.12;69.16;101051.94;5019517;28;45388;-62
2021/07/03 02:08:31;;;;;;;;;13.00;11.00;;;;;20.16;68.97;101047.97;5020191;28;45411;-62
2021/07/03 02:10:56;;;;;;;;;12.67;12.33;;;;;20.18;68.91;101043.28;5020257;28;45483;-62
2021/07/03 02:13:22;;;;;;;;;14.67;12.67;;;;;20.18;68.79;101040.59;5032673;28;45569;-64
2021/07/03 02:15:47;;;;;;;;;15.00;12.67;;;;;20.16;68.91;101039.97;5040367;28;45773;-63
2021/07/03 02:18:13;;;;;;;;;14.00;13.67;;;;;20.14;69.13;101039.28;5023070;28;45477;-65
2021/07/03 02:20:38;;;;;;;;;11.67;9.67;;;;;20.14;69.34;101041.94;5020294;28;45473;-64
2021/07/03 02:23:04;;;;;;;;;12.33;11.00;;;;;20.14;69.46;101038.47;5019507;28;45561;-65
2021/07/03 02:25:31;;;;;;;;;14.00;12.00;;;;;20.14;69.25;101039.28;5019850;28;45474;-65
2021/07/03 02:27:57;;;;;;;;;11.67;11.67;;;;;20.14;68.96;101041.94;5020118;28;45386;-65
2021/07/03 02:30:23;;;;;;;;;13.33;12.67;;;;;20.14;69.34;101044.63;5035054;28;45394;-65
2021/07/03 02:32:49;;;;;;;;;15.00;14.00;;;;;20.13;69.55;101037.63;5018993;28;45509;-65
2021/07/03 02:35:16;;;;;;;;;16.67;13.00;;;;;20.15;69.14;101045.44;5019838;28;46219;-69
2021/07/03 02:37:43;;;;;;;;;14.00;10.33;;;;;20.12;69.14;101046.59;5025769;28;45818;-63
2021/07/03 02:40:13;;;;;;;;;13.67;11.67;;;;;20.11;69.28;101042.31;5019829;28;45566;-64
2021/07/03 02:42:39;;;;;;;;;13.67;12.67;;;;;20.09;69.44;101041.63;5020184;28;45236;-65
2021/07/03 02:45:06;;;;;;;;;13.67;10.67;;;;;20.08;69.76;101034.63;5019687;28;46286;-64
2021/07/03 02:47:33;;;;;;;;;12.00;12.00;;;;;20.06;69.36;101031.31;5019198;28;45635;-64
2021/07/03 02:49:59;;;;;;;;;9.67;8.33;;;;;20.04;70.03;101038.63;5020355;28;45776;-63
2021/07/03 02:52:24;;;;;;;;;13.67;12.67;;;;;19.99;69.68;101032.97;5019161;28;45498;-63
2021/07/03 02:54:49;;;;;;;;;15.67;13.67;;;;;19.95;70.32;101032.47;5019419;28;45439;-63
2021/07/03 02:57:16;;;;;;;;;14.00;13.00;;;;;19.89;70.13;101036.66;5019376;28;45493;-63
2021/07/03 02:59:41;;;;;;;;;13.00;10.33;;;;;19.87;70.01;101038.63;5016679;28;45387;-63
2021/07/03 03:02:06;;;;;;;;;14.00;12.33;;;;;19.82;70.33;101035.63;5016828;28;45347;-71
2021/07/03 03:04:32;;;;;;;;;13.33;11.33;;;;;19.79;70.29;101041.28;5015967;28;46079;-68
2021/07/03 03:06:57;;;;;;;;;12.67;11.67;;;;;19.78;70.03;101035.13;5027124;28;45411;-70
2021/07/03 03:09:23;;;;;;;;;13.67;12.33;;;;;19.79;69.80;101035.97;5022154;28;45437;-77
2021/07/03 03:11:48;;;;;;;;;13.67;11.33;;;;;19.79;69.40;101031.44;5015643;28;45416;-71
2021/07/03 03:14:14;;;;;;;;;11.33;11.33;;;;;19.82;68.81;101034.81;5002815;28;45613;-71
2021/07/03 03:16:39;;;;;;;;;13.00;11.00;;;;;19.85;68.62;101027.34;5028278;28;45330;-73
2021/07/03 03:19:05;;;;;;;;;13.00;11.00;;;;;19.89;68.61;101025.16;5036699;28;45437;-70
2021/07/03 03:21:31;;;;;;;;;13.33;11.33;;;;;19.92;68.30;101033.63;5021297;28;45462;-77
2021/07/03 03:23:57;;;;;;;;;12.33;10.00;;;;;19.95;68.61;101030.66;5035668;28;46433;-76
2021/07/03 03:26:23;;;;;;;;;12.67;11.00;;;;;20.00;68.63;101031.97;5036285;28;45433;-78
2021/07/03 03:28:49;;;;;;;;;12.00;11.00;;;;;20.02;68.01;101019.28;5029531;28;45389;-78
2021/07/03 03:31:14;;;;;;;;;13.33;11.67;;;;;20.05;68.33;101018.97;5029642;28;45362;-76
2021/07/03 03:33:40;;;;;;;;;13.00;11.00;;;;;20.06;67.28;101018.78;5017662;28;46601;-76
2021/07/03 03:36:05;;;;;;;;;11.00;10.00;;;;;20.09;67.05;101017.63;5021679;28;45394;-76
2021/07/03 03:38:31;;;;;;;;;11.33;10.00;;;;;20.11;67.64;101023.63;5016849;28;45286;-66
2021/07/03 03:40:56;;;;;;;;;13.00;12.67;;;;;20.15;67.24;101030.28;5031931;28;45472;-66
2021/07/03 03:43:22;;;;;;;;;12.00;12.00;;;;;20.17;66.88;101030.94;5017036;28;45481;-69
2021/07/03 03:45:48;;;;;;;;;15.33;12.33;;;;;20.20;67.15;101033.28;5016862;28;45370;-68
2021/07/03 03:48:13;;;;;;;;;11.33;11.00;;;;;20.22;66.91;101025.94;5016960;28;45238;-68
2021/07/03 03:50:39;;;;;;;;;15.00;12.67;;;;;20.24;66.70;101023.94;5016716;28;45634;-68
2021/07/03 03:53:04;;;;;;;;;11.00;11.00;;;;;20.26;66.89;101027.28;5015630;28;45408;-65
2021/07/03 03:55:30;;;;;;;;;12.33;12.00;;;;;20.28;67.37;101019.09;5035285;28;45620;-66
2021/07/03 03:57:56;;;;;;;;;13.67;12.00;;;;;20.27;67.57;101028.91;5023444;28;45429;-65
2021/07/03 04:00:21;;;;;;;;;13.00;10.00;;;;;20.26;68.17;101019.28;5026985;28;45480;-67
2021/07/03 04:02:47;;;;;;;;;13.00;12.00;;;;;20.28;68.31;101029.75;5015367;28;45452;-66
2021/07/03 04:05:14;;;;;;;;;12.33;12.33;;;;;20.26;67.93;101029.94;5016906;28;45472;-67
2021/07/03 04:07:42;;;;;;;;;13.33;11.00;;;;;20.25;67.90;101030.94;5024690;28;45568;-66
2021/07/03 04:10:09;;;;;;;;;11.67;11.67;;;;;20.24;67.72;101034.59;5025484;28;45464;-64
2021/07/03 04:12:35;;;;;;;;;13.00;12.00;;;;;20.24;67.83;101050.59;5015713;28;45513;-64
2021/07/03 04:15:01;;;;;;;;;12.00;11.00;;;;;20.26;67.20;101047.75;5016455;28;45412;-64
2021/07/03 04:17:26;;;;;;;;;11.00;10.33;;;;;20.27;68.23;101049.44;5033682;28;45439;-64
2021/07/03 04:19:52;;;;;;;;;12.33;11.67;;;;;20.26;68.17;101048.63;5036449;28;45385;-64
2021/07/03 04:22:18;;;;;;;;;14.00;12.33;;;;;20.24;68.47;101047.13;5032360;28;45496;-62
2021/07/03 04:24:44;;;;;;;;;13.00;13.00;;;;;20.22;68.67;101057.94;5015575;28;45503;-65
2021/07/03 04:27:10;;;;;;;;;17.00;12.33;;;;;20.22;68.50;101054.44;5024702;28;45323;-63
2021/07/03 04:29:35;;;;;;;;;13.00;11.67;;;;;20.22;68.33;101047.25;4996563;28;45413;-64
2021/07/03 04:32:01;;;;;;;;;14.00;12.67;;;;;20.23;68.95;101048.94;5005243;28;46540;-66
2021/07/03 04:34:27;;;;;;;;;9.00;9.00;;;;;20.22;68.82;101051.78;5031299;28;45425;-63
2021/07/03 04:36:52;;;;;;;;;11.33;11.00;;;;;20.22;68.02;101057.94;5014066;28;45486;-62
2021/07/03 04:39:18;;;;;;;;;13.00;13.00;;;;;20.26;68.56;101061.09;5015570;28;45524;-63
2021/07/03 04:41:44;;;;;;;;;12.00;11.33;;;;;20.30;67.54;101065.09;5015803;28;46094;-63
2021/07/03 04:44:10;;;;;;;;;10.00;10.00;;;;;20.35;67.84;101061.91;5016177;28;45559;-63
2021/07/03 04:46:36;;;;;;;;;11.00;11.00;;;;;20.37;67.48;101065.22;5016095;28;45440;-63
2021/07/03 04:49:03;;;;;;;;;16.67;14.00;;;;;20.41;67.21;101071.91;5015852;28;45550;-63
2021/07/03 04:51:28;;;;;;;;;11.00;11.00;;;;;20.45;67.65;101067.91;5015492;28;46501;-63
2021/07/03 04:53:54;;;;;;;;;9.00;9.00;;;;;20.48;67.37;101062.22;5015934;28;45375;-63
2021/07/03 04:56:19;;;;;;;;;12.33;12.33;;;;;20.55;67.94;101057.88;5016047;28;45446;-63
2021/07/03 04:58:45;;;;;;;;;14.67;12.00;;;;;20.61;67.36;101061.66;5015103;28;45502;-62
2021/07/03 05:01:10;;;;;;;;;11.00;10.00;;;;;20.66;67.27;101063.84;5019736;28;45962;-62
2021/07/03 05:03:36;;;;;;;;;12.67;12.00;;;;;20.72;67.51;101064.00;5030999;28;45405;-63
2021/07/03 05:06:02;;;;;;;;;14.33;11.00;;;;;20.77;67.60;101060.81;5031448;28;45484;-62
2021/07/03 05:08:27;;;;;;;;;7.67;6.33;;;;;20.81;67.68;101061.28;5022457;28;45616;-62
2021/07/03 05:10:53;;;;;;;;;16.00;12.33;;;;;20.85;67.29;101059.94;5034807;28;46141;-62
2021/07/03 05:13:19;;;;;;;;;14.00;11.67;;;;;20.89;67.33;101058.63;5021692;28;45358;-63
2021/07/03 05:15:45;;;;;;;;;14.67;13.00;;;;;20.92;66.78;101050.25;5031728;28;45375;-62
2021/07/03 05:18:11;;;;;;;;;12.00;11.00;;;;;20.97;66.68;101060.41;5018235;28;45364;-62
2021/07/03 05:20:36;;;;;;;;;12.00;12.00;;;;;21.01;66.79;101056.38;5023693;28;45431;-62
2021/07/03 05:23:02;;;;;;;;;15.33;13.00;;;;;21.05;67.00;101053.16;5022046;28;45422;-63
2021/07/03 05:25:28;;;;;;;;;12.33;12.00;;;;;21.08;67.38;101046.66;5017123;28;45406;-61
2021/07/03 05:27:53;;;;;;;;;17.00;13.00;;;;;21.11;67.05;101046.31;5015252;28;45380;-62
2021/07/03 05:30:19;;;;;;;;;14.00;13.33;;;;;21.13;66.80;101044.28;5027780;28;46333;-62
2021/07/03 05:32:44;;;;;;;;;15.00;13.33;;;;;21.15;66.86;101041.44;5017786;28;45382;-63
2021/07/03 05:35:11;;;;;;;;;13.00;13.00;;;;;21.17;66.81;101040.25;5034738;28;45314;-63
2021/07/03 05:37:37;;;;;;;;;12.00;12.00;;;;;21.20;67.22;101031.91;5050799;28;45341;-63
2021/07/03 05:40:03;;;;;;;;;16.00;12.33;;;;;21.25;67.07;101024.19;5034833;28;45487;-62
2021/07/03 05:42:29;;;;;;;;;15.67;12.00;;;;;21.25;66.91;101026.00;5035243;28;45424;-62
2021/07/03 05:44:54;;;;;;;;;14.00;14.00;;;;;21.25;66.58;101026.84;5034950;28;45522;-63
2021/07/03 05:47:21;;;;;;;;;14.00;11.67;;;;;21.29;66.78;101021.16;5035060;28;45370;-62
2021/07/03 05:49:46;;;;;;;;;13.33;13.33;;;;;21.30;66.71;101033.50;5014313;28;45582;-63
2021/07/03 05:52:12;;;;;;;;;14.33;13.33;;;;;21.34;66.70;101034.81;5023661;28;45521;-63
2021/07/03 05:54:37;;;;;;;;;13.33;10.67;;;;;21.37;66.79;101039.81;5031958;28;45417;-63
2021/07/03 05:57:03;;;;;;;;;15.00;13.67;;;;;21.40;67.04;101034.91;5034957;28;45567;-63
2021/07/03 05:59:28;;;;;;;;;15.00;13.33;;;;;21.50;66.35;101037.38;5019752;28;45451;-63
2021/07/03 06:01:54;;;;;;;;;19.00;15.33;;;;;21.61;66.52;101046.00;5014272;28;45403;-62
2021/07/03 06:04:19;;;;;;;;;15.67;14.67;;;;;21.72;66.16;101035.72;4994856;28;45456;-63
2021/07/03 06:06:45;;;;;;;;;12.67;12.67;;;;;21.92;65.39;101038.72;5016606;28;45450;-62
2021/07/03 06:09:10;;;;;;;;;14.00;13.00;;;;;22.36;65.50;101039.00;5016208;28;46403;-63
2021/07/03 06:11:36;;;;;;;;;15.67;14.33;;;;;23.12;63.86;101028.00;5014430;28;45422;-62
2021/07/03 06:14:01;;;;;;;;;14.00;13.33;;;;;24.02;63.25;101038.31;5014423;28;45355;-62
2021/07/03 06:16:27;;;;;;;;;16.00;11.67;;;;;24.93;62.16;101039.25;5014945;28;45462;-62
2021/07/03 06:18:52;;;;;;;;;14.67;13.00;;;;;25.77;61.39;101040.66;5014434;28;45551;-62
2021/07/03 06:21:18;;;;;;;;;10.67;10.67;;;;;26.27;59.64;101050.13;5015118;28;45378;-62
2021/07/03 06:23:44;;;;;;;;;13.00;11.00;;;;;26.44;58.29;101053.19;5014662;28;45563;-64
2021/07/03 06:26:09;;;;;;;;;9.67;9.67;;;;;26.43;58.79;101048.84;5014224;28;45407;-62
2021/07/03 06:28:35;;;;;;;;;14.00;13.00;;;;;26.30;58.03;101049.75;5014816;28;45493;-63
2021/07/03 06:31:01;;;;;;;;;13.67;11.00;;;;;26.09;58.35;101059.72;5013996;28;45470;-66
2021/07/03 06:33:27;;;;;;;;;10.00;10.00;;;;;25.84;58.74;101063.00;5015646;28;45448;-65
2021/07/03 06:35:52;;;;;;;;;15.33;13.33;;;;;25.59;58.97;101062.78;5018023;28;45459;-63
2021/07/03 06:38:18;;;;;;;;;19.67;15.67;;;;;25.33;58.61;101066.22;5024719;28;46209;-63
2021/07/03 06:40:44;;;;;;;;;15.00;11.67;;;;;25.07;58.71;101065.13;5037916;28;45497;-63
2021/07/03 06:43:09;;;;;;;;;17.67;15.00;;;;;24.85;59.32;101054.50;5037980;28;45385;-63
2021/07/03 06:45:35;;;;;;;;;11.67;11.67;;;;;24.67;60.00;101060.41;5037770;28;45349;-63
2021/07/03 06:48:00;;;;;;;;;14.00;12.33;;;;;24.49;60.34;101052.84;5037468;28;45614;-65
2021/07/03 06:50:26;;;;;;;;;15.33;14.00;;;;;24.33;60.45;101051.31;5053255;28;45339;-62
2021/07/03 06:52:51;;;;;;;;;16.00;15.33;;;;;24.25;60.45;101058.69;5020176;28;45578;-63
2021/07/03 06:55:17;;;;;;;;;16.00;13.00;;;;;24.17;61.38;101060.53;5027141;28;45465;-63
2021/07/03 06:57:43;;;;;;;;;17.00;13.67;;;;;24.12;60.97;101062.97;5036972;28;46336;-62
2021/07/03 07:00:09;;;;;;;;;16.33;14.00;;;;;24.05;61.20;101072.81;5016080;28;45524;-63
2021/07/03 07:02:35;;;;;;;;;14.33;14.33;;;;;24.06;61.13;101077.16;5018028;28;45541;-63
2021/07/03 07:05:00;;;;;;;;;13.33;12.33;;;;;24.12;61.61;101076.38;5017561;28;45425;-62
2021/07/03 07:07:26;;;;;;;;;17.33;14.67;;;;;24.13;61.06;101078.06;5017519;28;45536;-62
2021/07/03 07:09:51;;;;;;;;;15.00;13.33;;;;;24.19;61.42;101071.88;5017731;28;45392;-62
2021/07/03 07:12:17;;;;;;;;;14.33;14.00;;;;;24.26;61.06;101076.47;5017399;28;45482;-62
2021/07/03 07:14:42;;;;;;;;;12.67;12.33;;;;;24.30;60.97;101072.34;5017199;28;45546;-63
2021/07/03 07:17:10;;;;;;;;;15.67;13.33;;;;;24.37;60.73;101081.28;5017369;28;46470;-62
2021/07/03 07:19:35;;;;;;;;;24.33;20.33;;;;;24.44;60.18;101075.97;5017050;28;45482;-62
2021/07/03 07:22:01;;;;;;;;;16.33;13.00;;;;;24.46;60.37;101085.47;5017543;28;45423;-62
2021/07/03 07:24:26;;;;;;;;;17.00;15.67;;;;;24.46;60.73;101077.44;5028193;28;45359;-63
2021/07/03 07:26:52;;;;;;;;;16.67;12.00;;;;;24.44;61.32;101079.47;5029757;28;46050;-63
2021/07/03 07:29:17;;;;;;;;;16.00;16.00;;;;;24.42;61.42;101092.28;5034978;28;45401;-63
2021/07/03 07:31:45;;;;;;;;;15.33;15.00;;;;;24.41;60.33;101089.78;5037169;28;45329;-63
2021/07/03 07:34:12;;;;;;;;;16.00;16.00;;;;;24.39;60.96;101087.28;5036988;28;45604;-63
2021/07/03 07:36:48;;;;;;;;;17.33;14.33;;;;;24.37;60.44;101083.97;5036375;28;46886;-63
2021/07/03 07:39:14;;;;;;;;;17.00;15.33;;;;;24.37;58.81;101090.16;5036867;28;45449;-63
2021/07/03 07:41:39;;;;;;;;;18.67;17.67;;;;;24.35;59.83;101097.59;5037123;28;45477;-63
2021/07/03 07:44:05;;;;;;;;;15.33;15.33;;;;;24.35;59.62;101096.75;5035890;28;45502;-64
2021/07/03 07:46:30;;;;;;;;;14.33;14.00;;;;;24.34;60.50;101106.69;5052289;28;47013;-63
2021/07/03 07:48:57;;;;;;;;;15.33;12.67;;;;;24.36;60.90;101107.31;5036881;28;45467;-63
2021/07/03 07:51:23;;;;;;;;;16.00;15.67;;;;;24.36;61.34;101110.00;5024737;28;45526;-63
2021/07/03 07:53:48;;;;;;;;;13.00;11.67;;;;;24.33;60.75;101110.38;5016942;28;45355;-64
2021/07/03 07:56:18;;;;;;;;;15.00;13.67;;;;;24.34;61.01;101122.78;5016339;28;46358;-63
2021/07/03 07:58:44;;;;;;;;;17.67;15.00;;;;;24.31;61.12;101116.97;5016056;28;45353;-63
2021/07/03 08:01:13;;;;;;;;;15.00;13.67;;;;;24.28;60.85;101123.56;5016625;28;45301;-63
2021/07/03 08:03:38;;;;;;;;;15.67;14.00;;;;;24.24;59.11;101113.44;5016654;28;45304;-62
2021/07/03 08:06:04;;;;;;;;;13.00;12.33;;;;;24.18;59.03;101107.81;5016608;28;46377;-63
2021/07/03 08:08:29;;;;;;;;;13.33;12.00;;;;;24.18;59.47;101107.81;5016525;28;45354;-64
2021/07/03 08:10:55;;;;;;;;;11.33;11.00;;;;;24.12;59.44;101097.84;5016683;28;45391;-62
2021/07/03 08:13:20;;;;;;;;;11.67;11.67;;;;;24.09;58.32;101090.16;5016110;28;45300;-62
2021/07/03 08:15:46;;;;;;;;;12.33;11.00;;;;;24.08;57.84;101090.38;5016327;28;45563;-63
2021/07/03 08:18:11;;;;;;;;;13.00;12.67;;;;;24.06;59.23;101087.88;5015591;28;45474;-63
2021/07/03 08:20:37;;;;;;;;;10.33;10.33;;;;;24.04;57.61;101100.66;5024143;28;46187;-63
2021/07/03 08:23:03;;;;;;;;;10.67;10.67;;;;;24.00;58.71;101108.28;4996527;28;45496;-62
2021/07/03 08:25:29;;;;;;;;;13.33;12.00;;;;;23.94;58.62;101105.56;4999855;28;46169;-63
2021/07/03 08:27:55;;;;;;;;;12.00;12.00;;;;;23.87;58.58;101106.28;5025365;28;45468;-64
2021/07/03 08:30:21;;;;;;;;;13.33;12.00;;;;;23.82;58.37;101103.34;5016261;28;45606;-64
2021/07/03 08:32:47;;;;;;;;;14.00;12.00;;;;;23.78;58.55;101101.25;5016711;28;45439;-63
2021/07/03 08:35:14;;;;;;;;;11.33;9.00;;;;;23.76;58.62;101104.13;5035515;28;46093;-63
2021/07/03 08:37:40;;;;;;;;;11.00;10.00;;;;;23.77;60.02;101104.94;5050990;28;45365;-64
2021/07/03 08:40:07;;;;;;;;;10.67;10.33;;;;;23.73;57.69;101099.97;5036062;28;45376;-63
2021/07/03 08:42:33;;;;;;;;;9.00;9.00;;;;;23.66;58.58;101099.06;5035725;28;45326;-63
2021/07/03 08:44:58;;;;;;;;;9.67;7.00;;;;;23.64;58.00;101106.47;5035935;28;45360;-63
2021/07/03 08:47:24;;;;;;;;;10.67;10.67;;;;;23.58;57.28;101109.09;5035619;28;45390;-62
2021/07/03 08:49:54;;;;;;;;;8.67;7.67;;;;;23.47;56.73;101105.91;5031971;28;45405;-63
2021/07/03 08:52:20;;;;;;;;;11.33;11.00;;;;;23.39;56.80;101103.31;5021487;28;45545;-62
2021/07/03 08:55:02;;;;;;;;;12.33;10.33;;;;;23.32;58.71;101105.13;5050547;28;47772;-64
2021/07/03 08:57:28;;;;;;;;;9.67;8.33;;;;;23.30;59.23;101107.16;5034866;28;45277;-63
2021/07/03 08:59:59;;;;;;;;;9.33;8.00;;;;;23.29;59.31;101113.50;5033944;28;45584;-63
2021/07/03 09:02:38;;;;;;;;;13.00;10.00;;;;;23.29;60.19;101110.84;5034292;28;45481;-64
2021/07/03 09:05:16;;;;;;;;;10.00;10.00;;;;;23.30;59.21;101112.50;5035380;28;45561;-63
2021/07/03 09:07:41;;;;;;;;;11.33;11.33;;;;;23.26;57.54;101105.88;5030211;28;45314;-63
2021/07/03 09:10:07;;;;;;;;;12.00;12.00;;;;;23.23;57.73;101105.22;5015729;28;45422;-63
2021/07/03 09:12:35;;;;;;;;;11.33;10.00;;;;;23.21;58.60;101109.94;5015239;28;45394;-63
2021/07/03 09:15:15;;;;;;;;;12.67;10.33;;;;;23.23;58.47;101105.22;5030390;28;48191;-63
2021/07/03 09:17:47;;;;;;;;;13.00;11.00;;;;;23.27;58.29;101118.25;5015103;28;45317;-63
2021/07/03 09:20:13;;;;;;;;;16.67;13.67;;;;;23.28;58.62;101114.56;5015264;28;45404;-63
2021/07/03 09:22:39;;;;;;;;;10.67;10.67;;;;;23.31;59.65;101106.13;5015510;28;45536;-64
2021/07/03 09:25:18;;;;;;;;;10.33;10.33;;;;;23.39;60.16;101109.53;5013918;28;45711;-64
2021/07/03 09:27:44;;;;;;;;;14.33;12.00;;;;;23.47;58.92;101113.09;5015295;28;45336;-64
2021/07/03 09:30:10;;;;;;;;;12.00;10.67;;;;;23.54;60.56;101117.50;5015475;28;45246;-69
2021/07/03 09:32:36;;;;;;;;;13.67;10.33;;;;;23.63;60.55;101114.72;5015064;28;45265;-68
2021/07/03 09:35:08;;;;;;;;;12.00;11.00;;;;;23.66;58.12;101114.34;5014768;28;46439;-69
2021/07/03 09:37:35;;;;;;;;;14.00;11.67;;;;;23.67;59.42;101116.00;5015000;28;45361;-69
2021/07/03 09:40:08;;;;;;;;;15.33;11.67;;;;;23.67;59.02;101119.50;5015120;28;45485;-68
2021/07/03 09:42:37;;;;;;;;;16.00;12.33;;;;;23.65;57.75;101118.88;5014533;28;45528;-70
2021/07/03 09:45:05;;;;;;;;;11.67;11.33;;;;;23.62;58.89;101129.16;5006542;28;45291;-68
2021/07/03 09:47:31;;;;;;;;;14.67;12.67;;;;;23.56;59.55;101130.72;5027457;28;45604;-70
2021/07/03 09:50:12;;;;;;;;;12.00;11.67;;;;;23.47;59.15;101129.19;5035001;28;45347;-68
2021/07/03 09:52:39;;;;;;;;;11.00;10.00;;;;;23.40;58.76;101132.66;5016071;28;45466;-68
2021/07/03 09:55:07;;;;;;;;;9.67;9.67;;;;;23.35;59.21;101128.84;5014475;28;46119;-68
2021/07/03 09:57:37;;;;;;;;;15.33;12.33;;;;;23.24;58.83;101131.00;5014573;28;45509;-68
2021/07/03 10:00:10;;;;;;;;;16.00;15.00;;;;;23.19;57.91;101136.09;5013685;28;45474;-63
2021/07/03 10:02:38;;;;;;;;;71.75;47.50;;;;;23.11;57.61;101136.16;5017500;28;45526;-63
2021/07/03 10:05:04;;;;;;;;;70.75;48.25;;;;;23.08;58.93;101142.72;5022269;28;45389;-64
2021/07/03 10:07:55;;;;;;;;;20.00;15.33;;;;;23.09;58.36;101151.59;5024145;28;45450;-64
2021/07/03 10:10:25;;;;;;;;;13.67;10.33;;;;;23.07;57.09;101150.97;5020362;28;45414;-63
2021/07/03 10:13:16;;;;;;;;;19.00;13.00;;;;;23.07;57.12;101148.28;5038183;28;45764;-64
2021/07/03 10:15:42;;;;;;;;;14.00;12.67;;;;;23.10;56.78;101136.38;5028748;28;45456;-69
2021/07/03 10:18:21;;;;;;;;;10.00;9.00;;;;;23.20;58.82;101142.28;5038161;28;45371;-69
2021/07/03 10:20:49;;;;;;;;;13.33;12.00;;;;;23.29;58.22;101141.16;5038138;28;45614;-69
2021/07/03 10:23:15;;;;;;;;;11.67;9.00;;;;;23.35;58.07;101134.22;5038194;28;45335;-68
2021/07/03 10:25:49;;;;;;;;;12.67;11.33;;;;;23.43;55.50;101138.63;5037955;28;45333;-68
2021/07/03 10:28:16;;;;;;;;;14.00;9.67;;;;;23.49;57.82;101136.00;5031228;28;45519;-70
2021/07/03 10:30:49;;;;;;;;;14.00;11.67;;;;;23.56;57.58;101139.63;5025635;28;45332;-69
2021/07/03 10:33:19;;;;;;;;;13.00;10.00;;;;;23.62;57.94;101139.88;5032617;28;45526;-70
2021/07/03 10:35:51;;;;;;;;;12.33;11.00;;;;;23.69;58.50;101143.44;5026746;28;45590;-69
2021/07/03 10:38:28;;;;;;;;;12.67;11.33;;;;;23.72;58.69;101130.47;5029979;28;45376;-70
2021/07/03 10:41:00;;;;;;;;;15.00;13.67;;;;;23.77;59.57;101142.47;5036610;28;45708;-65
2021/07/03 10:43:25;;;;;;;;;13.00;12.00;;;;;23.82;58.84;101146.28;5024568;28;45514;-67
2021/07/03 10:45:55;;;;;;;;;13.00;11.00;;;;;23.90;58.66;101145.34;5018722;28;45589;-64
2021/07/03 10:48:23;;;;;;;;;9.33;9.33;;;;;23.96;57.24;101141.91;5031384;28;45379;-64
2021/07/03 10:50:51;;;;;;;;;8.00;8.00;;;;;24.03;55.06;101148.13;5015472;28;46782;-64
2021/07/03 10:53:30;;;;;;;;;5.67;5.00;;;;;24.10;55.21;101142.81;5014006;28;45396;-63
2021/07/03 10:56:11;;;;;;;;;8.33;8.33;;;;;24.15;55.07;101143.06;5020287;28;45431;-65
2021/07/03 10:58:38;;;;;;;;;11.33;10.33;;;;;24.23;57.32;101139.41;5016807;28;45454;-64
2021/07/03 11:01:13;;;;;;;;;10.00;9.00;;;;;24.26;52.97;101140.88;5029668;28;45478;-65
2021/07/03 11:03:41;;;;;;;;;13.00;10.33;;;;;24.31;54.28;101146.50;5005106;28;45599;-64
2021/07/03 11:06:20;;;;;;;;;8.33;7.67;;;;;24.32;53.71;101140.13;5019125;28;46172;-65
2021/07/03 11:08:46;;;;;;;;;10.33;6.33;;;;;24.31;55.28;101138.44;5016250;28;45391;-67
2021/07/03 11:11:14;;;;;;;;;8.00;8.00;;;;;24.26;52.60;101146.25;5015797;28;45436;-68